sensor_id;sensor_type;location;lat;lon;timestamp;P1;durP1;ratioP1;P2;durP2;ratioP2
23159;SDS011;11748;50.844;4.396;2022-09-09T00:04:12;2.47;;;0.90;;
23159;SDS011;11748;50.844;4.396;2022-09-09T00:09:25;2.75;;;1.10;;
23159;SDS011;11748;50.844;4.396;2022-09-09T00:12:10;3.80;;;0.98;;
23159;SDS011;11748;50.844;4.396;2022-09-09T00:14:47;5.05;;;1.35;;
23159;SDS011;11748;50.844;4.396;2022-09-09T00:22:37;3.55;;;1.05;;
23159;SDS011;11748;50.844;4.396;2022-09-09T00:25:14;4.07;;;0.80;;
23159;SDS011;11748;50.844;4.396;2022-09-09T00:28:02;3.85;;;0.80;;
23159;SDS011;11748;50.844;4.396;2022-09-09T00:30:34;2.83;;;1.10;;
23159;SDS011;11748;50.844;4.396;2022-09-09T00:33:02;4.13;;;1.00;;
23159;SDS011;11748;50.844;4.396;2022-09-09T00:35:42;3.80;;;0.82;;
23159;SDS011;11748;50.844;4.396;2022-09-09T00:38:14;5.85;;;1.17;;
23159;SDS011;11748;50.844;4.396;2022-09-09T00:40:49;5.85;;;1.40;;
23159;SDS011;11748;50.844;4.396;2022-09-09T00:48:28;2.90;;;0.88;;
23159;SDS011;11748;50.844;4.396;2022-09-09T01:02:16;3.73;;;0.93;;
23159;SDS011;11748;50.844;4.396;2022-09-09T01:05:34;2.05;;;0.80;;
23159;SDS011;11748;50.844;4.396;2022-09-09T01:08:00;4.70;;;1.10;;
23159;SDS011;11748;50.844;4.396;2022-09-09T01:10:50;3.75;;;0.88;;
23159;SDS011;11748;50.844;4.396;2022-09-09T01:13:25;6.05;;;1.00;;
23159;SDS011;11748;50.844;4.396;2022-09-09T01:15:56;4.65;;;1.00;;
23159;SDS011;11748;50.844;4.396;2022-09-09T01:18:46;4.32;;;1.00;;
23159;SDS011;11748;50.844;4.396;2022-09-09T01:24:16;4.93;;;0.93;;
23159;SDS011;11748;50.844;4.396;2022-09-09T01:26:59;4.40;;;1.02;;
23159;SDS011;11748;50.844;4.396;2022-09-09T01:29:27;5.03;;;1.10;;
23159;SDS011;11748;50.844;4.396;2022-09-09T01:34:36;4.95;;;1.00;;
23159;SDS011;11748;50.844;4.396;2022-09-09T01:37:08;7.15;;;1.27;;
23159;SDS011;11748;50.844;4.396;2022-09-09T01:39:38;4.88;;;1.48;;
23159;SDS011;11748;50.844;4.396;2022-09-09T01:42:08;4.88;;;1.27;;
23159;SDS011;11748;50.844;4.396;2022-09-09T01:44:36;4.82;;;1.27;;
23159;SDS011;11748;50.844;4.396;2022-09-09T01:47:04;6.38;;;1.40;;
23159;SDS011;11748;50.844;4.396;2022-09-09T01:49:30;6.22;;;1.00;;
23159;SDS011;11748;50.844;4.396;2022-09-09T01:51:58;5.90;;;1.50;;
23159;SDS011;11748;50.844;4.396;2022-09-09T01:54:26;4.93;;;1.55;;
23159;SDS011;11748;50.844;4.396;2022-09-09T01:59:39;5.95;;;1.10;;
23159;SDS011;11748;50.844;4.396;2022-09-09T02:04:47;7.75;;;1.67;;
23159;SDS011;11748;50.844;4.396;2022-09-09T02:10:09;4.97;;;1.50;;
23159;SDS011;11748;50.844;4.396;2022-09-09T02:12:45;8.20;;;1.73;;
23159;SDS011;11748;50.844;4.396;2022-09-09T02:15:17;8.73;;;1.67;;
23159;SDS011;11748;50.844;4.396;2022-09-09T02:17:50;8.95;;;1.77;;
23159;SDS011;11748;50.844;4.396;2022-09-09T02:20:19;9.88;;;1.48;;
23159;SDS011;11748;50.844;4.396;2022-09-09T02:25:17;6.60;;;1.60;;
23159;SDS011;11748;50.844;4.396;2022-09-09T02:27:46;6.35;;;1.50;;
23159;SDS011;11748;50.844;4.396;2022-09-09T02:30:16;8.70;;;1.65;;
23159;SDS011;11748;50.844;4.396;2022-09-09T02:32:45;5.25;;;1.60;;
23159;SDS011;11748;50.844;4.396;2022-09-09T02:35:15;8.95;;;2.03;;
23159;SDS011;11748;50.844;4.396;2022-09-09T02:37:44;8.88;;;1.80;;
23159;SDS011;11748;50.844;4.396;2022-09-09T02:40:14;8.82;;;1.63;;
23159;SDS011;11748;50.844;4.396;2022-09-09T02:42:41;9.75;;;1.60;;
23159;SDS011;11748;50.844;4.396;2022-09-09T02:45:11;7.75;;;1.75;;
23159;SDS011;11748;50.844;4.396;2022-09-09T02:56:07;7.75;;;1.38;;
23159;SDS011;11748;50.844;4.396;2022-09-09T02:58:35;11.07;;;1.92;;
23159;SDS011;11748;50.844;4.396;2022-09-09T03:01:02;9.23;;;1.90;;
23159;SDS011;11748;50.844;4.396;2022-09-09T03:03:27;8.70;;;1.70;;
23159;SDS011;11748;50.844;4.396;2022-09-09T03:06:00;10.00;;;1.85;;
23159;SDS011;11748;50.844;4.396;2022-09-09T03:08:26;4.78;;;1.60;;
23159;SDS011;11748;50.844;4.396;2022-09-09T03:10:54;5.55;;;1.45;;
23159;SDS011;11748;50.844;4.396;2022-09-09T03:13:20;9.70;;;2.55;;
23159;SDS011;11748;50.844;4.396;2022-09-09T03:15:48;7.22;;;1.67;;
23159;SDS011;11748;50.844;4.396;2022-09-09T03:18:14;7.05;;;1.60;;
23159;SDS011;11748;50.844;4.396;2022-09-09T03:20:41;6.97;;;1.90;;
23159;SDS011;11748;50.844;4.396;2022-09-09T03:23:07;7.13;;;1.65;;
23159;SDS011;11748;50.844;4.396;2022-09-09T03:25:34;8.43;;;1.55;;
23159;SDS011;11748;50.844;4.396;2022-09-09T03:28:00;8.32;;;1.52;;
23159;SDS011;11748;50.844;4.396;2022-09-09T03:30:27;14.65;;;2.30;;
23159;SDS011;11748;50.844;4.396;2022-09-09T03:32:54;5.30;;;1.70;;
23159;SDS011;11748;50.844;4.396;2022-09-09T03:35:20;10.43;;;1.75;;
23159;SDS011;11748;50.844;4.396;2022-09-09T03:37:46;7.75;;;1.77;;
23159;SDS011;11748;50.844;4.396;2022-09-09T03:40:13;7.97;;;1.73;;
23159;SDS011;11748;50.844;4.396;2022-09-09T03:42:39;8.02;;;1.80;;
23159;SDS011;11748;50.844;4.396;2022-09-09T03:45:06;7.03;;;1.52;;
23159;SDS011;11748;50.844;4.396;2022-09-09T03:47:34;6.38;;;1.65;;
23159;SDS011;11748;50.844;4.396;2022-09-09T03:50:01;11.68;;;2.28;;
23159;SDS011;11748;50.844;4.396;2022-09-09T03:52:29;10.55;;;2.13;;
23159;SDS011;11748;50.844;4.396;2022-09-09T03:54:55;7.32;;;2.00;;
23159;SDS011;11748;50.844;4.396;2022-09-09T03:57:21;10.63;;;2.35;;
23159;SDS011;11748;50.844;4.396;2022-09-09T03:59:47;10.35;;;2.10;;
23159;SDS011;11748;50.844;4.396;2022-09-09T04:02:13;8.15;;;2.03;;
23159;SDS011;11748;50.844;4.396;2022-09-09T04:04:38;8.52;;;2.17;;
23159;SDS011;11748;50.844;4.396;2022-09-09T04:07:04;8.45;;;1.55;;
23159;SDS011;11748;50.844;4.396;2022-09-09T04:09:32;7.18;;;1.77;;
23159;SDS011;11748;50.844;4.396;2022-09-09T04:11:58;7.55;;;1.80;;
23159;SDS011;11748;50.844;4.396;2022-09-09T04:14:23;9.57;;;1.73;;
23159;SDS011;11748;50.844;4.396;2022-09-09T04:16:59;10.80;;;2.20;;
23159;SDS011;11748;50.844;4.396;2022-09-09T04:19:26;5.80;;;1.73;;
23159;SDS011;11748;50.844;4.396;2022-09-09T04:21:53;9.68;;;2.50;;
23159;SDS011;11748;50.844;4.396;2022-09-09T04:24:19;8.95;;;2.00;;
23159;SDS011;11748;50.844;4.396;2022-09-09T04:26:46;9.35;;;2.05;;
23159;SDS011;11748;50.844;4.396;2022-09-09T04:29:13;14.82;;;2.67;;
23159;SDS011;11748;50.844;4.396;2022-09-09T04:34:09;8.90;;;2.42;;
23159;SDS011;11748;50.844;4.396;2022-09-09T04:36:34;9.57;;;2.53;;
23159;SDS011;11748;50.844;4.396;2022-09-09T04:39:01;9.48;;;2.40;;
23159;SDS011;11748;50.844;4.396;2022-09-09T04:41:29;10.88;;;2.05;;
23159;SDS011;11748;50.844;4.396;2022-09-09T04:43:57;12.50;;;2.00;;
23159;SDS011;11748;50.844;4.396;2022-09-09T04:46:23;9.52;;;2.50;;
23159;SDS011;11748;50.844;4.396;2022-09-09T04:48:50;12.32;;;2.35;;
23159;SDS011;11748;50.844;4.396;2022-09-09T04:51:18;9.35;;;2.33;;
23159;SDS011;11748;50.844;4.396;2022-09-09T04:53:49;10.70;;;1.98;;
23159;SDS011;11748;50.844;4.396;2022-09-09T04:56:17;12.85;;;2.10;;
23159;SDS011;11748;50.844;4.396;2022-09-09T04:58:44;9.98;;;2.40;;
23159;SDS011;11748;50.844;4.396;2022-09-09T05:03:40;7.95;;;2.03;;
23159;SDS011;11748;50.844;4.396;2022-09-09T05:06:10;7.20;;;1.98;;
23159;SDS011;11748;50.844;4.396;2022-09-09T05:08:41;7.88;;;2.08;;
23159;SDS011;11748;50.844;4.396;2022-09-09T05:13:49;10.95;;;2.35;;
23159;SDS011;11748;50.844;4.396;2022-09-09T05:16:15;10.63;;;2.72;;
23159;SDS011;11748;50.844;4.396;2022-09-09T05:18:42;6.82;;;2.65;;
23159;SDS011;11748;50.844;4.396;2022-09-09T05:21:15;11.02;;;2.33;;
23159;SDS011;11748;50.844;4.396;2022-09-09T05:23:44;8.27;;;2.30;;
23159;SDS011;11748;50.844;4.396;2022-09-09T05:26:15;10.27;;;2.85;;
23159;SDS011;11748;50.844;4.396;2022-09-09T05:28:46;7.97;;;1.90;;
23159;SDS011;11748;50.844;4.396;2022-09-09T05:31:14;9.95;;;2.85;;
23159;SDS011;11748;50.844;4.396;2022-09-09T05:33:47;7.88;;;2.30;;
23159;SDS011;11748;50.844;4.396;2022-09-09T05:36:18;10.07;;;3.03;;
23159;SDS011;11748;50.844;4.396;2022-09-09T05:38:45;8.68;;;1.98;;
23159;SDS011;11748;50.844;4.396;2022-09-09T05:41:12;11.57;;;2.47;;
23159;SDS011;11748;50.844;4.396;2022-09-09T05:43:40;10.10;;;2.50;;
23159;SDS011;11748;50.844;4.396;2022-09-09T05:46:08;13.00;;;2.50;;
23159;SDS011;11748;50.844;4.396;2022-09-09T05:48:44;12.50;;;2.65;;
23159;SDS011;11748;50.844;4.396;2022-09-09T05:51:12;11.10;;;2.33;;
23159;SDS011;11748;50.844;4.396;2022-09-09T05:53:43;7.20;;;1.77;;
23159;SDS011;11748;50.844;4.396;2022-09-09T05:56:16;7.82;;;2.70;;
23159;SDS011;11748;50.844;4.396;2022-09-09T05:58:44;8.30;;;2.65;;
23159;SDS011;11748;50.844;4.396;2022-09-09T06:01:19;9.63;;;1.92;;
23159;SDS011;11748;50.844;4.396;2022-09-09T06:03:47;12.45;;;2.20;;
23159;SDS011;11748;50.844;4.396;2022-09-09T06:06:15;8.80;;;2.25;;
23159;SDS011;11748;50.844;4.396;2022-09-09T06:08:43;10.98;;;2.22;;
23159;SDS011;11748;50.844;4.396;2022-09-09T06:11:11;10.57;;;2.30;;
23159;SDS011;11748;50.844;4.396;2022-09-09T06:13:40;13.07;;;2.08;;
23159;SDS011;11748;50.844;4.396;2022-09-09T06:16:09;12.65;;;2.28;;
23159;SDS011;11748;50.844;4.396;2022-09-09T06:18:37;9.02;;;2.35;;
23159;SDS011;11748;50.844;4.396;2022-09-09T06:21:04;11.60;;;2.10;;
23159;SDS011;11748;50.844;4.396;2022-09-09T06:23:32;7.28;;;1.90;;
23159;SDS011;11748;50.844;4.396;2022-09-09T06:26:10;11.15;;;2.53;;
23159;SDS011;11748;50.844;4.396;2022-09-09T06:28:36;9.82;;;2.17;;
23159;SDS011;11748;50.844;4.396;2022-09-09T06:31:03;11.77;;;2.67;;
23159;SDS011;11748;50.844;4.396;2022-09-09T06:33:31;8.20;;;2.10;;
23159;SDS011;11748;50.844;4.396;2022-09-09T06:36:00;8.35;;;2.00;;
23159;SDS011;11748;50.844;4.396;2022-09-09T06:38:26;11.27;;;2.30;;
23159;SDS011;11748;50.844;4.396;2022-09-09T06:40:53;8.73;;;1.85;;
23159;SDS011;11748;50.844;4.396;2022-09-09T06:43:20;9.05;;;1.90;;
23159;SDS011;11748;50.844;4.396;2022-09-09T06:45:54;10.18;;;2.00;;
23159;SDS011;11748;50.844;4.396;2022-09-09T06:48:19;12.82;;;2.33;;
23159;SDS011;11748;50.844;4.396;2022-09-09T06:50:46;10.65;;;1.92;;
23159;SDS011;11748;50.844;4.396;2022-09-09T06:53:12;8.88;;;1.75;;
23159;SDS011;11748;50.844;4.396;2022-09-09T06:55:41;7.28;;;2.22;;
23159;SDS011;11748;50.844;4.396;2022-09-09T06:58:09;9.15;;;1.73;;
23159;SDS011;11748;50.844;4.396;2022-09-09T07:00:35;10.25;;;2.20;;
23159;SDS011;11748;50.844;4.396;2022-09-09T07:03:03;5.43;;;1.30;;
23159;SDS011;11748;50.844;4.396;2022-09-09T07:05:29;7.60;;;1.55;;
23159;SDS011;11748;50.844;4.396;2022-09-09T07:07:54;6.35;;;1.45;;
23159;SDS011;11748;50.844;4.396;2022-09-09T07:10:20;8.10;;;2.08;;
23159;SDS011;11748;50.844;4.396;2022-09-09T07:12:50;10.05;;;2.25;;
23159;SDS011;11748;50.844;4.396;2022-09-09T07:15:18;11.27;;;1.65;;
23159;SDS011;11748;50.844;4.396;2022-09-09T07:17:45;8.65;;;1.58;;
23159;SDS011;11748;50.844;4.396;2022-09-09T07:20:11;8.48;;;1.67;;
23159;SDS011;11748;50.844;4.396;2022-09-09T07:22:37;5.22;;;1.80;;
23159;SDS011;11748;50.844;4.396;2022-09-09T07:25:03;10.48;;;1.70;;
23159;SDS011;11748;50.844;4.396;2022-09-09T07:27:29;10.98;;;2.10;;
23159;SDS011;11748;50.844;4.396;2022-09-09T07:29:55;12.77;;;1.95;;
23159;SDS011;11748;50.844;4.396;2022-09-09T07:32:21;14.60;;;2.08;;
23159;SDS011;11748;50.844;4.396;2022-09-09T07:34:46;10.40;;;1.75;;
23159;SDS011;11748;50.844;4.396;2022-09-09T07:37:14;11.20;;;2.35;;
23159;SDS011;11748;50.844;4.396;2022-09-09T07:39:43;6.65;;;1.75;;
23159;SDS011;11748;50.844;4.396;2022-09-09T07:42:09;7.20;;;1.60;;
23159;SDS011;11748;50.844;4.396;2022-09-09T07:44:37;6.55;;;1.80;;
23159;SDS011;11748;50.844;4.396;2022-09-09T07:47:05;9.02;;;1.80;;
23159;SDS011;11748;50.844;4.396;2022-09-09T07:49:32;6.57;;;1.58;;
23159;SDS011;11748;50.844;4.396;2022-09-09T07:51:58;11.43;;;1.65;;
23159;SDS011;11748;50.844;4.396;2022-09-09T07:54:24;8.10;;;1.60;;
23159;SDS011;11748;50.844;4.396;2022-09-09T07:56:51;8.40;;;1.58;;
23159;SDS011;11748;50.844;4.396;2022-09-09T07:59:17;8.45;;;1.90;;
23159;SDS011;11748;50.844;4.396;2022-09-09T08:01:45;10.05;;;2.22;;
23159;SDS011;11748;50.844;4.396;2022-09-09T08:04:16;7.38;;;1.80;;
23159;SDS011;11748;50.844;4.396;2022-09-09T08:06:45;9.65;;;1.83;;
23159;SDS011;11748;50.844;4.396;2022-09-09T08:09:17;7.63;;;2.03;;
23159;SDS011;11748;50.844;4.396;2022-09-09T08:11:43;9.05;;;1.98;;
23159;SDS011;11748;50.844;4.396;2022-09-09T08:14:09;9.52;;;1.65;;
23159;SDS011;11748;50.844;4.396;2022-09-09T08:16:40;10.80;;;1.90;;
23159;SDS011;11748;50.844;4.396;2022-09-09T08:19:08;5.78;;;1.83;;
23159;SDS011;11748;50.844;4.396;2022-09-09T08:21:35;10.00;;;2.13;;
23159;SDS011;11748;50.844;4.396;2022-09-09T08:24:03;6.63;;;1.98;;
23159;SDS011;11748;50.844;4.396;2022-09-09T08:26:32;10.77;;;2.22;;
23159;SDS011;11748;50.844;4.396;2022-09-09T08:29:03;11.65;;;1.90;;
23159;SDS011;11748;50.844;4.396;2022-09-09T08:31:35;8.73;;;1.92;;
23159;SDS011;11748;50.844;4.396;2022-09-09T08:34:04;7.82;;;1.67;;
23159;SDS011;11748;50.844;4.396;2022-09-09T08:36:35;9.63;;;1.90;;
23159;SDS011;11748;50.844;4.396;2022-09-09T08:39:03;7.20;;;1.65;;
23159;SDS011;11748;50.844;4.396;2022-09-09T08:44:14;6.22;;;1.88;;
23159;SDS011;11748;50.844;4.396;2022-09-09T08:58:01;5.40;;;1.27;;
23159;SDS011;11748;50.844;4.396;2022-09-09T09:03:52;9.45;;;1.90;;
23159;SDS011;11748;50.844;4.396;2022-09-09T09:11:39;10.65;;;1.90;;
23159;SDS011;11748;50.844;4.396;2022-09-09T09:14:11;7.13;;;2.05;;
23159;SDS011;11748;50.844;4.396;2022-09-09T09:16:48;8.70;;;2.00;;
23159;SDS011;11748;50.844;4.396;2022-09-09T09:19:19;8.43;;;2.05;;
23159;SDS011;11748;50.844;4.396;2022-09-09T09:21:50;10.57;;;2.05;;
23159;SDS011;11748;50.844;4.396;2022-09-09T09:26:58;10.05;;;2.67;;
23159;SDS011;11748;50.844;4.396;2022-09-09T09:29:32;11.95;;;2.53;;
23159;SDS011;11748;50.844;4.396;2022-09-09T09:32:00;6.28;;;1.58;;
23159;SDS011;11748;50.844;4.396;2022-09-09T09:34:28;5.10;;;1.85;;
23159;SDS011;11748;50.844;4.396;2022-09-09T09:36:57;9.43;;;1.83;;
23159;SDS011;11748;50.844;4.396;2022-09-09T09:39:29;11.05;;;1.77;;
23159;SDS011;11748;50.844;4.396;2022-09-09T09:42:07;9.65;;;1.75;;
23159;SDS011;11748;50.844;4.396;2022-09-09T09:44:40;7.68;;;2.20;;
23159;SDS011;11748;50.844;4.396;2022-09-09T09:47:20;11.88;;;2.45;;
23159;SDS011;11748;50.844;4.396;2022-09-09T09:49:53;12.57;;;2.67;;
23159;SDS011;11748;50.844;4.396;2022-09-09T09:52:24;8.13;;;2.05;;
23159;SDS011;11748;50.844;4.396;2022-09-09T09:54:54;8.50;;;2.20;;
23159;SDS011;11748;50.844;4.396;2022-09-09T09:57:31;9.70;;;1.95;;
23159;SDS011;11748;50.844;4.396;2022-09-09T10:00:02;6.15;;;1.67;;
23159;SDS011;11748;50.844;4.396;2022-09-09T10:02:40;8.18;;;2.10;;
23159;SDS011;11748;50.844;4.396;2022-09-09T10:05:21;9.85;;;2.13;;
23159;SDS011;11748;50.844;4.396;2022-09-09T10:08:03;6.00;;;1.90;;
23159;SDS011;11748;50.844;4.396;2022-09-09T10:19:29;8.45;;;1.75;;
23159;SDS011;11748;50.844;4.396;2022-09-09T10:22:02;8.27;;;1.65;;
23159;SDS011;11748;50.844;4.396;2022-09-09T10:25:08;10.30;;;2.10;;
23159;SDS011;11748;50.844;4.396;2022-09-09T10:30:26;4.38;;;1.58;;
23159;SDS011;11748;50.844;4.396;2022-09-09T10:33:12;10.50;;;1.88;;
23159;SDS011;11748;50.844;4.396;2022-09-09T10:38:39;6.60;;;1.90;;
23159;SDS011;11748;50.844;4.396;2022-09-09T10:41:24;7.75;;;1.70;;
23159;SDS011;11748;50.844;4.396;2022-09-09T10:46:50;7.18;;;1.83;;
23159;SDS011;11748;50.844;4.396;2022-09-09T10:52:21;7.95;;;1.58;;
23159;SDS011;11748;50.844;4.396;2022-09-09T10:55:15;5.85;;;1.50;;
23159;SDS011;11748;50.844;4.396;2022-09-09T11:00:22;8.55;;;2.08;;
23159;SDS011;11748;50.844;4.396;2022-09-09T11:02:51;7.03;;;1.70;;
23159;SDS011;11748;50.844;4.396;2022-09-09T11:05:35;6.78;;;1.40;;
23159;SDS011;11748;50.844;4.396;2022-09-09T11:08:06;8.40;;;1.63;;
23159;SDS011;11748;50.844;4.396;2022-09-09T11:21:50;6.63;;;1.55;;
23159;SDS011;11748;50.844;4.396;2022-09-09T11:24:30;4.97;;;1.23;;
23159;SDS011;11748;50.844;4.396;2022-09-09T11:29:58;6.95;;;1.58;;
23159;SDS011;11748;50.844;4.396;2022-09-09T11:37:55;7.45;;;1.42;;
23159;SDS011;11748;50.844;4.396;2022-09-09T11:40:37;7.28;;;1.35;;
23159;SDS011;11748;50.844;4.396;2022-09-09T11:43:08;5.85;;;1.42;;
23159;SDS011;11748;50.844;4.396;2022-09-09T11:45:54;4.13;;;1.25;;
23159;SDS011;11748;50.844;4.396;2022-09-09T11:48:29;5.32;;;1.42;;
23159;SDS011;11748;50.844;4.396;2022-09-09T11:51:08;5.72;;;1.38;;
23159;SDS011;11748;50.844;4.396;2022-09-09T11:53:34;4.95;;;1.40;;
23159;SDS011;11748;50.844;4.396;2022-09-09T11:56:13;7.80;;;1.40;;
23159;SDS011;11748;50.844;4.396;2022-09-09T11:59:05;4.15;;;1.10;;
23159;SDS011;11748;50.844;4.396;2022-09-09T12:01:45;7.82;;;1.30;;
23159;SDS011;11748;50.844;4.396;2022-09-09T12:12:54;5.25;;;1.33;;
23159;SDS011;11748;50.844;4.396;2022-09-09T12:15:25;5.43;;;1.38;;
23159;SDS011;11748;50.844;4.396;2022-09-09T12:17:55;4.88;;;1.23;;
23159;SDS011;11748;50.844;4.396;2022-09-09T12:20:24;4.95;;;1.20;;
23159;SDS011;11748;50.844;4.396;2022-09-09T12:34:50;4.57;;;1.48;;
23159;SDS011;11748;50.844;4.396;2022-09-09T12:40:03;5.90;;;1.45;;
23159;SDS011;11748;50.844;4.396;2022-09-09T12:42:31;5.55;;;1.20;;
23159;SDS011;11748;50.844;4.396;2022-09-09T12:45:01;8.32;;;1.70;;
23159;SDS011;11748;50.844;4.396;2022-09-09T12:50:27;5.35;;;1.13;;
23159;SDS011;11748;50.844;4.396;2022-09-09T12:52:58;6.40;;;1.17;;
23159;SDS011;11748;50.844;4.396;2022-09-09T12:55:33;5.47;;;1.60;;
23159;SDS011;11748;50.844;4.396;2022-09-09T12:58:03;4.88;;;1.17;;
23159;SDS011;11748;50.844;4.396;2022-09-09T13:00:31;3.40;;;0.90;;
23159;SDS011;11748;50.844;4.396;2022-09-09T13:02:59;4.95;;;1.00;;
23159;SDS011;11748;50.844;4.396;2022-09-09T13:05:41;3.97;;;1.20;;
23159;SDS011;11748;50.844;4.396;2022-09-09T13:08:15;5.35;;;1.00;;
23159;SDS011;11748;50.844;4.396;2022-09-09T13:13:28;3.70;;;1.25;;
23159;SDS011;11748;50.844;4.396;2022-09-09T13:16:02;4.18;;;1.10;;
23159;SDS011;11748;50.844;4.396;2022-09-09T13:18:33;3.83;;;1.10;;
23159;SDS011;11748;50.844;4.396;2022-09-09T13:21:01;4.65;;;1.38;;
23159;SDS011;11748;50.844;4.396;2022-09-09T13:23:32;5.38;;;1.10;;
23159;SDS011;11748;50.844;4.396;2022-09-09T13:26:18;5.50;;;1.38;;
23159;SDS011;11748;50.844;4.396;2022-09-09T13:28:50;4.07;;;1.17;;
23159;SDS011;11748;50.844;4.396;2022-09-09T13:31:51;3.05;;;1.17;;
23159;SDS011;11748;50.844;4.396;2022-09-09T13:34:11;2.88;;;1.00;;
23159;SDS011;11748;50.844;4.396;2022-09-09T13:37:07;3.90;;;1.10;;
23159;SDS011;11748;50.844;4.396;2022-09-09T13:39:53;3.70;;;0.88;;
23159;SDS011;11748;50.844;4.396;2022-09-09T13:42:29;3.97;;;1.10;;
23159;SDS011;11748;50.844;4.396;2022-09-09T13:44:58;3.30;;;0.93;;
23159;SDS011;11748;50.844;4.396;2022-09-09T13:47:35;2.53;;;1.00;;
23159;SDS011;11748;50.844;4.396;2022-09-09T13:50:44;4.28;;;1.00;;
23159;SDS011;11748;50.844;4.396;2022-09-09T13:52:53;2.50;;;0.82;;
23159;SDS011;11748;50.844;4.396;2022-09-09T13:55:25;4.07;;;0.90;;
23159;SDS011;11748;50.844;4.396;2022-09-09T13:57:56;2.75;;;1.00;;
23159;SDS011;11748;50.844;4.396;2022-09-09T14:00:22;3.25;;;0.85;;
23159;SDS011;11748;50.844;4.396;2022-09-09T14:02:51;3.30;;;1.00;;
23159;SDS011;11748;50.844;4.396;2022-09-09T14:05:21;3.45;;;1.15;;
23159;SDS011;11748;50.844;4.396;2022-09-09T14:07:47;2.42;;;1.00;;
23159;SDS011;11748;50.844;4.396;2022-09-09T14:10:14;5.18;;;1.00;;
23159;SDS011;11748;50.844;4.396;2022-09-09T14:12:40;4.35;;;1.58;;
23159;SDS011;11748;50.844;4.396;2022-09-09T14:15:06;3.92;;;1.00;;
23159;SDS011;11748;50.844;4.396;2022-09-09T14:17:34;6.97;;;0.90;;
23159;SDS011;11748;50.844;4.396;2022-09-09T14:20:01;4.75;;;1.10;;
23159;SDS011;11748;50.844;4.396;2022-09-09T14:22:30;4.18;;;1.50;;
23159;SDS011;11748;50.844;4.396;2022-09-09T14:24:56;6.95;;;1.63;;
23159;SDS011;11748;50.844;4.396;2022-09-09T14:27:22;2.90;;;1.25;;
23159;SDS011;11748;50.844;4.396;2022-09-09T14:29:48;3.97;;;0.90;;
23159;SDS011;11748;50.844;4.396;2022-09-09T14:32:14;6.55;;;1.63;;
23159;SDS011;11748;50.844;4.396;2022-09-09T14:34:39;3.63;;;1.27;;
23159;SDS011;11748;50.844;4.396;2022-09-09T14:37:05;2.97;;;1.25;;
23159;SDS011;11748;50.844;4.396;2022-09-09T14:39:32;4.57;;;1.17;;
23159;SDS011;11748;50.844;4.396;2022-09-09T14:41:58;2.28;;;0.93;;
23159;SDS011;11748;50.844;4.396;2022-09-09T14:44:24;3.90;;;1.15;;
23159;SDS011;11748;50.844;4.396;2022-09-09T14:46:50;3.65;;;1.20;;
23159;SDS011;11748;50.844;4.396;2022-09-09T14:51:45;4.85;;;0.93;;
23159;SDS011;11748;50.844;4.396;2022-09-09T14:54:10;2.97;;;1.30;;
23159;SDS011;11748;50.844;4.396;2022-09-09T14:56:37;3.08;;;1.00;;
23159;SDS011;11748;50.844;4.396;2022-09-09T14:59:03;4.60;;;1.10;;
23159;SDS011;11748;50.844;4.396;2022-09-09T15:01:29;5.10;;;1.25;;
23159;SDS011;11748;50.844;4.396;2022-09-09T15:06:23;3.78;;;0.90;;
23159;SDS011;11748;50.844;4.396;2022-09-09T15:08:51;5.25;;;1.38;;
23159;SDS011;11748;50.844;4.396;2022-09-09T15:11:19;5.90;;;1.02;;
23159;SDS011;11748;50.844;4.396;2022-09-09T15:13:45;3.45;;;1.10;;
23159;SDS011;11748;50.844;4.396;2022-09-09T15:16:16;5.10;;;1.20;;
23159;SDS011;11748;50.844;4.396;2022-09-09T15:18:44;4.13;;;0.98;;
23159;SDS011;11748;50.844;4.396;2022-09-09T15:21:12;3.90;;;1.10;;
23159;SDS011;11748;50.844;4.396;2022-09-09T15:23:40;4.78;;;1.17;;
23159;SDS011;11748;50.844;4.396;2022-09-09T15:26:09;4.55;;;0.80;;
23159;SDS011;11748;50.844;4.396;2022-09-09T15:28:37;3.70;;;0.98;;
23159;SDS011;11748;50.844;4.396;2022-09-09T15:33:36;2.95;;;1.10;;
23159;SDS011;11748;50.844;4.396;2022-09-09T15:36:15;2.70;;;1.23;;
23159;SDS011;11748;50.844;4.396;2022-09-09T15:38:42;3.35;;;1.00;;
23159;SDS011;11748;50.844;4.396;2022-09-09T15:41:10;4.28;;;1.42;;
23159;SDS011;11748;50.844;4.396;2022-09-09T15:43:38;4.93;;;1.20;;
23159;SDS011;11748;50.844;4.396;2022-09-09T15:49:05;5.15;;;1.30;;
23159;SDS011;11748;50.844;4.396;2022-09-09T15:51:31;3.45;;;1.15;;
23159;SDS011;11748;50.844;4.396;2022-09-09T15:53:57;4.07;;;1.52;;
23159;SDS011;11748;50.844;4.396;2022-09-09T15:56:27;3.63;;;1.10;;
23159;SDS011;11748;50.844;4.396;2022-09-09T15:58:55;4.88;;;1.20;;
23159;SDS011;11748;50.844;4.396;2022-09-09T16:01:23;4.95;;;1.35;;
23159;SDS011;11748;50.844;4.396;2022-09-09T16:03:49;3.55;;;1.30;;
23159;SDS011;11748;50.844;4.396;2022-09-09T16:06:20;4.55;;;1.40;;
23159;SDS011;11748;50.844;4.396;2022-09-09T16:08:48;3.28;;;1.25;;
23159;SDS011;11748;50.844;4.396;2022-09-09T16:11:17;4.35;;;1.42;;
23159;SDS011;11748;50.844;4.396;2022-09-09T16:13:48;4.45;;;1.45;;
23159;SDS011;11748;50.844;4.396;2022-09-09T16:16:17;5.57;;;1.15;;
23159;SDS011;11748;50.844;4.396;2022-09-09T16:18:49;5.35;;;1.70;;
23159;SDS011;11748;50.844;4.396;2022-09-09T16:21:30;7.97;;;1.42;;
23159;SDS011;11748;50.844;4.396;2022-09-09T16:23:59;5.70;;;1.58;;
23159;SDS011;11748;50.844;4.396;2022-09-09T16:26:29;6.15;;;1.30;;
23159;SDS011;11748;50.844;4.396;2022-09-09T16:28:58;3.58;;;1.33;;
23159;SDS011;11748;50.844;4.396;2022-09-09T16:31:24;5.55;;;1.48;;
23159;SDS011;11748;50.844;4.396;2022-09-09T16:33:52;3.95;;;1.30;;
23159;SDS011;11748;50.844;4.396;2022-09-09T16:36:25;4.38;;;0.80;;
23159;SDS011;11748;50.844;4.396;2022-09-09T16:38:58;3.38;;;0.80;;
23159;SDS011;11748;50.844;4.396;2022-09-09T16:41:26;6.05;;;1.20;;
23159;SDS011;11748;50.844;4.396;2022-09-09T16:43:59;4.75;;;1.20;;
23159;SDS011;11748;50.844;4.396;2022-09-09T16:46:28;4.30;;;1.40;;
23159;SDS011;11748;50.844;4.396;2022-09-09T16:48:57;4.28;;;1.33;;
23159;SDS011;11748;50.844;4.396;2022-09-09T16:51:31;2.55;;;1.20;;
23159;SDS011;11748;50.844;4.396;2022-09-09T16:54:21;3.08;;;1.77;;
23159;SDS011;11748;50.844;4.396;2022-09-09T16:56:48;3.03;;;1.17;;
23159;SDS011;11748;50.844;4.396;2022-09-09T16:59:14;9.57;;;1.92;;
23159;SDS011;11748;50.844;4.396;2022-09-09T17:01:44;4.75;;;1.70;;
23159;SDS011;11748;50.844;4.396;2022-09-09T17:04:19;5.93;;;1.75;;
23159;SDS011;11748;50.844;4.396;2022-09-09T17:06:51;5.82;;;1.33;;
23159;SDS011;11748;50.844;4.396;2022-09-09T17:09:18;6.22;;;1.80;;
23159;SDS011;11748;50.844;4.396;2022-09-09T17:14:18;8.48;;;1.33;;
23159;SDS011;11748;50.844;4.396;2022-09-09T17:16:46;8.38;;;1.60;;
23159;SDS011;11748;50.844;4.396;2022-09-09T17:19:13;4.00;;;1.25;;
23159;SDS011;11748;50.844;4.396;2022-09-09T17:21:40;3.50;;;1.33;;
23159;SDS011;11748;50.844;4.396;2022-09-09T17:24:10;4.90;;;1.42;;
23159;SDS011;11748;50.844;4.396;2022-09-09T17:26:36;4.50;;;1.77;;
23159;SDS011;11748;50.844;4.396;2022-09-09T17:29:03;5.38;;;1.75;;
23159;SDS011;11748;50.844;4.396;2022-09-09T17:31:30;4.18;;;1.13;;
23159;SDS011;11748;50.844;4.396;2022-09-09T17:33:58;3.95;;;1.40;;
23159;SDS011;11748;50.844;4.396;2022-09-09T17:39:01;4.93;;;1.83;;
23159;SDS011;11748;50.844;4.396;2022-09-09T17:41:31;3.70;;;1.25;;
23159;SDS011;11748;50.844;4.396;2022-09-09T17:44:07;8.60;;;1.70;;
23159;SDS011;11748;50.844;4.396;2022-09-09T17:46:35;5.20;;;1.38;;
23159;SDS011;11748;50.844;4.396;2022-09-09T17:49:10;4.50;;;1.23;;
23159;SDS011;11748;50.844;4.396;2022-09-09T17:51:46;5.53;;;1.50;;
23159;SDS011;11748;50.844;4.396;2022-09-09T17:54:19;4.85;;;1.48;;
23159;SDS011;11748;50.844;4.396;2022-09-09T17:59:16;7.72;;;1.73;;